CheckWX is a tool to help pilots better visualize weather data.  It is not intended as a substitute for an official pre-flight weather briefing.

10:16:16 UTC

OMDB TAF
Dubai International Airport
Dubai, United Arab Emirates
TAF OMDB 190458Z 1906/2012 15010KT CAVOK BECMG 1909/1911 33014KT BECMG 1915/1917 08007KT BECMG 2003/2005 18010KT BECMG 2008/2010 33012KT

Aug-19@
06:00 UTC

Aug-19 @ 06:00 UTC

Aug-19@
09:00 UTC

Aug-19 @ 09:00 UTC

TAF OMDB 190458Z 1906/2012 15010KT CAVOK

Expired

Wind
  • 150° at 10 KTS
Conditions
No significant weather
Cloud Levels
  • No significant clouds

Aug-19@
09:00 UTC

Aug-19 @ 09:00 UTC

Aug-19@
15:00 UTC

Aug-19 @ 15:00 UTC

BECMG 1909/1911 33014KT

Becoming

Becoming Conditions expected by Mon, Aug 19, 2019 @ 11:00 UTC

Wind
  • 330° at 14 KTS
Conditions
No significant weather
Cloud Levels
  • No significant clouds

Aug-19@
15:00 UTC

Aug-19 @ 15:00 UTC

Aug-20@
03:00 UTC

Aug-20 @ 03:00 UTC

BECMG 1915/1917 08007KT

Becoming

Becoming Conditions expected by Mon, Aug 19, 2019 @ 17:00 UTC

Wind
  • 080° at 7 KTS
Conditions
No significant weather
Cloud Levels
  • No significant clouds

Aug-20@
03:00 UTC

Aug-20 @ 03:00 UTC

Aug-20@
08:00 UTC

Aug-20 @ 08:00 UTC

BECMG 2003/2005 18010KT

Becoming

Becoming Conditions expected by Tue, Aug 20, 2019 @ 05:00 UTC

Wind
  • 180° at 10 KTS
Conditions
No significant weather
Cloud Levels
  • No significant clouds

Aug-20@
08:00 UTC

Aug-20 @ 08:00 UTC

Aug-20@
12:00 UTC

Aug-20 @ 12:00 UTC

BECMG 2008/2010 33012KT

Becoming

Becoming Conditions expected by Tue, Aug 20, 2019 @ 10:00 UTC

Wind
  • 330° at 12 KTS
Conditions
No significant weather
Cloud Levels
  • No significant clouds